createdAt,value
2022-08-07T00:02:35.938Z,63.70
2022-08-07T00:04:34.689Z,64.01
2022-08-07T00:07:18.321Z,63.89
2022-08-07T00:10:25.455Z,63.49
2022-08-07T00:13:23.570Z,63.49
2022-08-07T00:16:07.539Z,63.36
2022-08-07T00:18:52.706Z,63.52
2022-08-07T00:21:56.079Z,63.19
2022-08-07T00:24:38.373Z,63.32
2022-08-07T00:27:22.987Z,63.04
2022-08-07T00:30:21.589Z,63.26
2022-08-07T00:33:10.057Z,63.65
2022-08-07T00:35:54.741Z,63.58
2022-08-07T00:38:39.270Z,63.58
2022-08-07T00:41:27.525Z,63.53
2022-08-07T00:44:11.289Z,63.57
2022-08-07T00:46:57.888Z,62.63
2022-08-07T00:50:21.326Z,62.40
2022-08-07T00:52:47.466Z,62.82
2022-08-07T00:56:00.603Z,63.25
2022-08-07T00:58:33.896Z,63.83
2022-08-07T01:01:18.178Z,63.86
2022-08-07T01:04:06.093Z,64.25
2022-08-07T01:06:50.155Z,64.45
2022-08-07T01:10:02.346Z,64.59
2022-08-07T01:12:37.084Z,64.94
2022-08-07T01:15:23.108Z,65.27
2022-08-07T01:18:28.549Z,65.90
2022-08-07T01:21:22.748Z,66.20
2022-08-07T01:24:12.225Z,66.59
2022-08-07T01:26:56.317Z,66.29
2022-08-07T01:29:42.652Z,66.27
2022-08-07T01:32:25.814Z,66.39
2022-08-07T01:35:11.434Z,66.84
2022-08-07T01:38:02.678Z,66.72
2022-08-07T01:40:47.680Z,67.19
2022-08-07T01:43:34.656Z,67.26
2022-08-07T01:46:22.332Z,67.14
2022-08-07T01:49:06.839Z,67.32
2022-08-07T01:52:03.779Z,67.07
2022-08-07T01:54:52.039Z,66.79
2022-08-07T01:58:05.833Z,66.72
2022-08-07T02:00:45.375Z,66.66
2022-08-07T02:03:42.712Z,67.00
2022-08-07T02:06:34.171Z,67.76
2022-08-07T02:09:51.994Z,67.96
2022-08-07T02:12:30.900Z,67.85
2022-08-07T02:15:15.353Z,67.73
2022-08-07T02:18:02.515Z,67.22
2022-08-07T02:20:48.797Z,67.58
2022-08-07T02:23:40.701Z,68.04
2022-08-07T02:26:33.093Z,67.84
2022-08-07T02:29:19.111Z,67.47
2022-08-07T02:32:10.789Z,67.41
2022-08-07T02:34:56.447Z,67.94
2022-08-07T02:37:43.891Z,68.45
2022-08-07T02:40:30.451Z,68.77
2022-08-07T02:43:18.005Z,68.81
2022-08-07T02:46:04.546Z,69.32
2022-08-07T02:48:55.195Z,69.12
2022-08-07T02:51:42.366Z,69.04
2022-08-07T02:54:34.378Z,69.14
2022-08-07T02:57:19.707Z,69.13
2022-08-07T03:00:10.921Z,69.05
2022-08-07T03:02:55.558Z,69.41
2022-08-07T03:05:40.625Z,69.13
2022-08-07T03:08:26.860Z,69.29
2022-08-07T03:11:13.712Z,69.59
2022-08-07T03:14:01.818Z,69.77
2022-08-07T03:16:45.915Z,69.75
2022-08-07T03:19:37.010Z,69.67
2022-08-07T03:22:30.375Z,70.17
2022-08-07T03:25:14.105Z,70.40
2022-08-07T03:28:09.396Z,70.40
2022-08-07T03:31:24.637Z,70.33
2022-08-07T03:34:18.506Z,70.69
2022-08-07T03:37:12.147Z,70.79
2022-08-07T03:40:13.433Z,71.04
2022-08-07T03:42:59.736Z,71.09
2022-08-07T03:45:47.585Z,71.25
2022-08-07T03:48:33.744Z,70.94
2022-08-07T03:51:47.016Z,70.99
2022-08-07T03:54:36.412Z,71.18
2022-08-07T03:58:35.081Z,71.17
2022-08-07T04:00:46.229Z,71.19
2022-08-07T04:03:49.549Z,71.37
2022-08-07T04:06:37.050Z,71.13
2022-08-07T04:09:38.036Z,70.90
2022-08-07T04:12:31.403Z,71.06
2022-08-07T04:15:16.192Z,71.62
2022-08-07T04:18:31.800Z,71.53
2022-08-07T04:21:07.291Z,71.63
2022-08-07T04:24:07.549Z,71.73
2022-08-07T04:26:51.524Z,72.04
2022-08-07T04:29:48.643Z,71.86
2022-08-07T04:32:38.585Z,72.12
2022-08-07T04:35:35.272Z,72.28
2022-08-07T04:38:20.148Z,72.30
2022-08-07T04:41:04.557Z,72.20
2022-08-07T04:44:12.138Z,72.11
2022-08-07T04:47:08.789Z,71.88
2022-08-07T04:50:10.992Z,71.92
2022-08-07T04:53:04.671Z,70.99
2022-08-07T04:58:24.429Z,70.75
2022-08-07T04:59:18.417Z,70.25
2022-08-07T05:02:16.885Z,69.62
2022-08-07T05:05:53.113Z,69.05
2022-08-07T05:08:59.146Z,68.90
2022-08-07T05:11:57.407Z,67.49
2022-08-07T05:14:51.887Z,65.69
2022-08-07T05:18:00.482Z,64.73
2022-08-07T05:20:46.264Z,63.51
2022-08-07T05:23:37.162Z,63.23
2022-08-07T05:26:24.699Z,62.49
2022-08-07T05:29:16.340Z,61.68
2022-08-07T05:32:00.255Z,60.68
2022-08-07T05:34:49.085Z,59.66
2022-08-07T05:37:40.861Z,59.30
2022-08-07T05:40:26.577Z,59.32
2022-08-07T05:43:11.535Z,58.85
2022-08-07T05:45:56.925Z,57.78
2022-08-07T05:48:59.012Z,57.41
2022-08-07T05:51:46.541Z,56.41
2022-08-07T05:54:53.513Z,56.00
2022-08-07T05:57:38.044Z,55.82
2022-08-07T06:00:27.250Z,55.51
2022-08-07T06:03:15.757Z,54.93
2022-08-07T06:06:00.833Z,54.65
2022-08-07T06:08:46.822Z,53.18
2022-08-07T06:11:30.424Z,52.35
2022-08-07T06:14:21.012Z,52.33
2022-08-07T06:17:11.844Z,52.09
2022-08-07T06:20:04.020Z,51.69
2022-08-07T06:23:02.178Z,51.72
2022-08-07T06:25:58.156Z,51.33
2022-08-07T06:28:53.041Z,51.03
2022-08-07T06:31:46.888Z,50.76
2022-08-07T06:34:35.020Z,50.55
2022-08-07T06:37:20.600Z,50.19
2022-08-07T06:40:17.506Z,49.70
2022-08-07T06:43:21.188Z,48.70
2022-08-07T06:46:12.627Z,48.24
2022-08-07T06:48:56.616Z,48.67
2022-08-07T06:51:50.100Z,47.94
2022-08-07T06:55:33.326Z,48.70
2022-08-07T06:57:47.700Z,47.18
2022-08-07T07:00:39.162Z,46.42
2022-08-07T07:03:39.627Z,47.19
2022-08-07T07:06:28.927Z,47.43
2022-08-07T07:09:24.053Z,47.09
2022-08-07T07:12:31.170Z,46.48
2022-08-07T07:15:24.173Z,46.24
2022-08-07T07:18:15.349Z,45.47
2022-08-07T07:21:27.271Z,46.17
2022-08-07T07:24:24.243Z,46.05
2022-08-07T07:27:09.602Z,44.56
2022-08-07T07:30:09.736Z,43.34
2022-08-07T07:32:57.645Z,45.41
2022-08-07T07:35:51.831Z,44.18
2022-08-07T07:38:46.191Z,43.57
2022-08-07T07:41:50.830Z,44.00
2022-08-07T07:44:38.110Z,40.81
2022-08-07T07:47:24.806Z,38.92
2022-08-07T07:50:36.253Z,40.44
2022-08-07T07:53:23.012Z,39.97
2022-08-07T07:56:09.079Z,38.38
2022-08-07T07:58:53.033Z,39.31
2022-08-07T08:02:03.465Z,38.62
2022-08-07T08:04:46.618Z,38.17
2022-08-07T08:07:42.344Z,37.78
2022-08-07T08:10:38.725Z,37.77
2022-08-07T08:13:24.564Z,36.83
2022-08-07T08:16:20.385Z,37.07
2022-08-07T08:20:15.830Z,35.93
2022-08-07T08:22:33.805Z,34.70
2022-08-07T08:25:42.343Z,33.37
2022-08-07T08:28:37.867Z,35.23
2022-08-07T08:31:30.246Z,34.50
2022-08-07T08:34:31.535Z,33.43
2022-08-07T08:38:01.579Z,32.89
2022-08-07T08:40:29.411Z,33.13
2022-08-07T08:43:17.685Z,34.45
2022-08-07T08:46:12.807Z,34.27
2022-08-07T08:49:05.114Z,33.58
2022-08-07T08:52:12.993Z,34.61
2022-08-07T08:55:07.726Z,33.95
2022-08-07T08:58:03.006Z,32.32
2022-08-07T09:00:52.755Z,30.66
2022-08-07T09:03:48.019Z,32.82
2022-08-07T09:06:48.207Z,32.79
2022-08-07T09:09:48.469Z,32.89
2022-08-07T09:12:54.069Z,33.33
2022-08-07T09:16:24.255Z,31.29
2022-08-07T09:19:53.387Z,32.42
2022-08-07T09:24:30.927Z,29.88
2022-08-07T09:25:54.259Z,29.93
2022-08-07T09:30:05.475Z,29.14
2022-08-07T09:31:54.688Z,30.89
2022-08-07T09:34:54.004Z,31.41
2022-08-07T09:37:48.268Z,31.55
2022-08-07T09:40:50.564Z,30.96
2022-08-07T09:44:05.705Z,30.91
2022-08-07T09:47:51.998Z,30.64
2022-08-07T09:50:26.450Z,30.48
2022-08-07T09:53:15.078Z,31.19
2022-08-07T09:56:19.793Z,31.54
2022-08-07T09:59:46.193Z,30.52
2022-08-07T10:03:08.219Z,31.36
2022-08-07T10:06:35.651Z,29.68
2022-08-07T10:09:42.747Z,30.97
2022-08-07T10:12:55.776Z,29.95
2022-08-07T10:15:49.729Z,29.49
2022-08-07T10:19:16.227Z,30.75
2022-08-07T10:22:15.889Z,31.17
2022-08-07T10:25:16.253Z,30.80
2022-08-07T10:28:30.700Z,30.26
2022-08-07T10:31:38.501Z,29.06
2022-08-07T10:34:40.641Z,29.31
2022-08-07T10:37:48.592Z,28.43
2022-08-07T10:40:50.161Z,29.14
2022-08-07T10:43:42.560Z,29.65
2022-08-07T10:46:29.529Z,30.13
2022-08-07T10:49:24.447Z,29.48
2022-08-07T10:52:13.962Z,28.14
2022-08-07T10:55:26.688Z,27.76
2022-08-07T10:58:33.122Z,26.93
2022-08-07T11:01:51.597Z,25.45
2022-08-07T11:05:10.761Z,25.26
2022-08-07T11:08:12.737Z,25.40
2022-08-07T11:11:05.908Z,24.00
2022-08-07T11:14:45.253Z,23.04
2022-08-07T11:17:07.384Z,24.95
2022-08-07T11:19:57.770Z,24.96
2022-08-07T11:22:49.198Z,24.62
2022-08-07T11:25:48.245Z,23.93
2022-08-07T11:28:41.042Z,22.88
2022-08-07T11:31:35.258Z,22.65
2022-08-07T11:34:24.452Z,22.76
2022-08-07T11:37:17.731Z,23.74
2022-08-07T11:40:23.351Z,24.32
2022-08-07T11:43:17.339Z,25.41
2022-08-07T11:46:33.701Z,24.96
2022-08-07T11:50:18.664Z,23.89
2022-08-07T11:52:55.704Z,23.75
2022-08-07T11:56:15.579Z,24.38
2022-08-07T12:00:08.196Z,23.51
2022-08-07T12:02:33.494Z,25.43
2022-08-07T12:05:28.909Z,26.13
2022-08-07T12:08:34.741Z,25.01
2022-08-07T12:11:22.587Z,25.60
2022-08-07T12:14:11.381Z,25.86
2022-08-07T12:17:01.172Z,25.90
2022-08-07T12:19:56.190Z,26.23
2022-08-07T12:22:56.210Z,26.38
2022-08-07T12:26:03.522Z,26.18
2022-08-07T12:29:03.613Z,26.05
2022-08-07T12:32:01.972Z,25.70
2022-08-07T12:34:55.801Z,25.25
2022-08-07T12:38:11.749Z,25.39
2022-08-07T12:40:48.774Z,24.70
2022-08-07T12:44:02.136Z,25.52
2022-08-07T12:47:00.700Z,25.13
2022-08-07T12:50:00.268Z,25.23
2022-08-07T12:52:56.644Z,25.37
2022-08-07T12:56:03.506Z,25.47
2022-08-07T12:58:57.297Z,24.06
2022-08-07T13:01:55.690Z,25.01
2022-08-07T13:05:14.658Z,25.23
2022-08-07T13:08:22.684Z,26.56
2022-08-07T13:11:24.640Z,26.77
2022-08-07T13:14:19.152Z,26.17
2022-08-07T13:17:13.318Z,25.94
2022-08-07T13:20:08.508Z,26.04
2022-08-07T13:22:59.715Z,26.77
2022-08-07T13:26:00.859Z,26.98
2022-08-07T13:28:52.452Z,27.63
2022-08-07T13:31:54.961Z,27.39
2022-08-07T13:34:50.825Z,27.84
2022-08-07T13:37:49.639Z,27.81
2022-08-07T13:40:57.392Z,28.02
2022-08-07T13:43:44.066Z,27.10
2022-08-07T13:46:41.896Z,27.87
2022-08-07T13:50:34.239Z,28.43
2022-08-07T13:52:44.035Z,29.15
2022-08-07T13:55:34.021Z,28.71
2022-08-07T13:58:39.143Z,27.67
2022-08-07T14:01:25.910Z,27.94
2022-08-07T14:04:10.687Z,29.00
2022-08-07T14:06:55.513Z,29.57
2022-08-07T14:10:02.489Z,28.33
2022-08-07T14:12:57.113Z,29.48
2022-08-07T14:15:42.525Z,29.36
2022-08-07T14:18:31.382Z,29.05
2022-08-07T14:22:41.152Z,29.20
2022-08-07T14:24:41.196Z,29.35
2022-08-07T14:28:11.843Z,29.71
2022-08-07T14:30:34.981Z,29.45
2022-08-07T14:33:22.432Z,30.47
2022-08-07T14:36:09.607Z,31.10
2022-08-07T14:39:01.738Z,31.33
2022-08-07T14:42:19.778Z,30.84
2022-08-07T14:44:59.537Z,30.42
2022-08-07T14:47:47.078Z,31.58
2022-08-07T14:50:30.869Z,32.00
2022-08-07T14:54:05.555Z,31.43
2022-08-07T15:00:05.128Z,31.36
2022-08-07T15:02:37.037Z,31.14
2022-08-07T15:05:25.188Z,32.07
2022-08-07T15:08:12.629Z,32.44
2022-08-07T15:10:59.623Z,32.29
2022-08-07T15:13:52.542Z,32.42
2022-08-07T15:16:39.332Z,32.37
2022-08-07T15:22:54.055Z,31.79
2022-08-07T15:25:40.339Z,32.35
2022-08-07T15:32:01.939Z,32.92
2022-08-07T15:34:50.647Z,32.72
2022-08-07T15:38:04.456Z,31.68
2022-08-07T15:41:00.518Z,32.78
2022-08-07T15:43:59.174Z,32.79
2022-08-07T15:46:52.039Z,32.46
2022-08-07T15:52:41.284Z,33.23
2022-08-07T15:55:25.159Z,33.57
2022-08-07T15:58:37.263Z,33.76
2022-08-07T16:01:24.761Z,33.95
2022-08-07T16:04:29.090Z,34.19
2022-08-07T16:08:28.459Z,34.46
2022-08-07T16:10:24.923Z,34.38
2022-08-07T16:13:57.781Z,35.10
2022-08-07T16:17:14.864Z,35.33
2022-08-07T16:20:33.929Z,35.07
2022-08-07T16:23:53.431Z,34.72
2022-08-07T16:26:59.537Z,34.81
2022-08-07T16:30:29.803Z,35.27
2022-08-07T16:34:02.403Z,35.70
2022-08-07T16:36:31.435Z,36.36
2022-08-07T16:39:40.470Z,36.40
2022-08-07T16:42:55.069Z,36.53
2022-08-07T16:46:47.167Z,35.99
2022-08-07T16:50:27.790Z,36.03
2022-08-07T16:54:02.532Z,36.57
2022-08-07T16:56:18.859Z,36.75
2022-08-07T16:59:17.306Z,36.89
2022-08-07T17:02:51.414Z,37.18
2022-08-07T17:06:28.176Z,37.26
2022-08-07T17:09:09.722Z,37.74
2022-08-07T17:12:04.892Z,37.76
2022-08-07T17:15:16.255Z,37.84
2022-08-07T17:18:14.246Z,38.27
2022-08-07T17:20:57.914Z,37.76
2022-08-07T17:23:51.386Z,37.64
2022-08-07T17:26:50.006Z,37.76
2022-08-07T17:30:15.974Z,38.01
2022-08-07T17:33:39.214Z,37.77
2022-08-07T17:36:26.500Z,38.75
2022-08-07T17:39:16.456Z,38.35
2022-08-07T17:42:06.549Z,38.71
2022-08-07T17:44:55.357Z,38.78
2022-08-07T17:47:53.952Z,38.63
2022-08-07T17:50:57.466Z,39.21
2022-08-07T17:54:01.419Z,39.73
2022-08-07T17:56:54.730Z,40.39
2022-08-07T17:59:44.130Z,40.46
2022-08-07T18:02:36.215Z,40.85
2022-08-07T18:06:01.015Z,41.41
2022-08-07T18:08:36.310Z,41.50
2022-08-07T18:12:07.731Z,41.57
2022-08-07T18:14:59.683Z,41.73
2022-08-07T18:18:46.657Z,42.02
2022-08-07T18:21:38.315Z,42.35
2022-08-07T18:24:33.585Z,42.65
2022-08-07T18:27:38.570Z,43.11
2022-08-07T18:30:36.756Z,43.62
2022-08-07T18:33:56.632Z,43.54
2022-08-07T18:36:53.878Z,43.73
2022-08-07T18:40:08.407Z,44.14
2022-08-07T18:43:00.507Z,44.23
2022-08-07T18:46:22.042Z,44.34
2022-08-07T18:50:05.244Z,44.64
2022-08-07T18:52:53.874Z,44.83
2022-08-07T18:55:55.867Z,44.97
2022-08-07T18:58:54.617Z,44.98
2022-08-07T19:02:17.200Z,45.59
2022-08-07T19:05:15.049Z,45.98
2022-08-07T19:08:05.996Z,46.02
2022-08-07T19:10:58.951Z,46.28
2022-08-07T19:14:08.005Z,46.61
2022-08-07T19:17:07.790Z,47.06
2022-08-07T19:20:03.587Z,46.94
2022-08-07T19:23:00.814Z,47.68
2022-08-07T19:26:24.982Z,47.82
2022-08-07T19:30:54.612Z,47.79
2022-08-07T19:32:18.640Z,48.51
2022-08-07T19:35:11.109Z,48.58
2022-08-07T19:37:58.507Z,48.63
2022-08-07T19:40:49.319Z,48.67
2022-08-07T19:43:43.535Z,49.34
2022-08-07T19:46:39.657Z,49.78
2022-08-07T19:49:57.209Z,49.82
2022-08-07T19:52:42.580Z,50.04
2022-08-07T19:55:56.408Z,50.87
2022-08-07T19:58:50.378Z,50.82
2022-08-07T20:01:52.622Z,51.08
2022-08-07T20:04:48.854Z,51.69
2022-08-07T20:07:47.609Z,52.27
2022-08-07T20:10:54.194Z,52.51
2022-08-07T20:13:45.939Z,52.69
2022-08-07T20:16:35.247Z,53.10
2022-08-07T20:19:23.263Z,53.13
2022-08-07T20:22:15.168Z,53.19
2022-08-07T20:25:06.119Z,53.11
2022-08-07T20:27:58.424Z,53.87
2022-08-07T20:30:46.874Z,54.54
2022-08-07T20:33:36.846Z,54.97
2022-08-07T20:36:21.769Z,55.12
2022-08-07T20:39:17.887Z,55.83
2022-08-07T20:42:12.329Z,56.90
2022-08-07T20:45:00.372Z,57.28
2022-08-07T20:47:56.330Z,57.49
2022-08-07T20:50:43.025Z,57.50
2022-08-07T20:54:02.833Z,57.87
2022-08-07T20:56:40.546Z,58.27
2022-08-07T21:00:06.868Z,57.95
2022-08-07T21:03:00.710Z,58.11
2022-08-07T21:05:54.819Z,58.57
2022-08-07T21:08:41.240Z,58.37
2022-08-07T21:11:29.052Z,58.81
2022-08-07T21:14:33.069Z,59.27
2022-08-07T21:18:02.189Z,59.11
2022-08-07T21:20:33.229Z,59.06
2022-08-07T21:23:27.804Z,59.56
2022-08-07T21:26:22.012Z,59.71
2022-08-07T21:29:15.655Z,59.84
2022-08-07T21:32:47.483Z,59.83
2022-08-07T21:35:15.158Z,60.39
2022-08-07T21:38:08.811Z,61.30
2022-08-07T21:41:01.921Z,61.09
2022-08-07T21:43:56.062Z,61.25
2022-08-07T21:46:46.944Z,61.56
2022-08-07T21:49:40.720Z,61.89
2022-08-07T21:52:57.079Z,61.66
2022-08-07T21:55:49.241Z,61.65
2022-08-07T21:58:45.870Z,61.61
2022-08-07T22:02:10.088Z,62.25
2022-08-07T22:04:52.727Z,62.55
2022-08-07T22:07:58.090Z,62.88
2022-08-07T22:10:45.795Z,63.02
2022-08-07T22:13:51.866Z,62.79
2022-08-07T22:16:46.885Z,63.22
2022-08-07T22:19:36.913Z,63.37
2022-08-07T22:22:28.949Z,63.02
2022-08-07T22:25:18.798Z,62.64
2022-08-07T22:28:31.173Z,62.76
2022-08-07T22:31:45.158Z,63.23
2022-08-07T22:34:39.886Z,63.70
2022-08-07T22:38:04.460Z,63.79
2022-08-07T22:40:54.500Z,63.84
2022-08-07T22:43:42.865Z,64.46
2022-08-07T22:47:03.563Z,64.04
2022-08-07T22:50:20.759Z,64.79
2022-08-07T22:54:08.867Z,65.23
2022-08-07T22:56:46.086Z,65.24
2022-08-07T22:59:50.025Z,64.78
2022-08-07T23:02:46.817Z,65.25
2022-08-07T23:06:08.454Z,65.14
2022-08-07T23:10:05.911Z,65.05
2022-08-07T23:12:37.190Z,65.04
2022-08-07T23:16:06.093Z,65.25
2022-08-07T23:19:11.160Z,65.67
2022-08-07T23:22:03.869Z,65.93
2022-08-07T23:24:58.639Z,65.72
2022-08-07T23:28:28.655Z,65.88
2022-08-07T23:32:49.594Z,65.66
2022-08-07T23:35:01.107Z,65.86
2022-08-07T23:38:42.428Z,66.01
2022-08-07T23:42:02.058Z,65.91
2022-08-07T23:45:15.106Z,65.99
2022-08-07T23:48:59.457Z,66.16
2022-08-07T23:52:59.976Z,66.46
2022-08-07T23:54:57.869Z,66.76
2022-08-07T23:57:43.800Z,66.30
